Time;durP1;ratioP1;P1;durP2;ratioP2;P2;SDS_P1;SDS_P2;PMS_P1;PMS_P2;Temp;Humidity;BMP_temperature;BMP_pressure;BME280_temperature;BME280_humidity;BME280_pressure;Samples;Min_cycle;Max_cycle;Signal;HPM_P1;HPM_P2
2022/12/31 00:01:48;;;;;;;;;;;;;;;8.80;81.49;100254.19;4170819;28;20779;-63
2022/12/31 00:03:50;;;;;;;;;;;;;;;8.81;81.19;100265.84;4171322;28;19933;-64
2022/12/31 00:05:53;;;;;;;;;;;;;;;8.80;80.95;100256.91;4170523;28;20008;-63
2022/12/31 00:07:56;;;;;;;;;;;;;;;8.79;80.73;100255.25;4170471;28;19944;-63
2022/12/31 00:09:58;;;;;;;;;;;;;;;8.79;81.13;100257.06;4169068;28;20028;-63
2022/12/31 00:12:00;;;;;;;;;;;;;;;8.79;81.67;100259.75;4171420;28;20015;-63
2022/12/31 00:14:02;;;;;;;;;;;;;;;8.78;81.44;100264.31;4171459;28;19992;-63
2022/12/31 00:16:08;;;;;;;;;;;;;;;8.80;81.18;100264.13;4170824;28;20027;-62
2022/12/31 00:18:11;;;;;;;;;;;;;;;8.80;81.32;100275.75;4171174;28;20337;-62
2022/12/31 00:20:13;;;;;;;;;;;;;;;8.82;81.56;100262.09;4171194;28;20427;-63
2022/12/31 00:22:17;;;;;;;;;;;;;;;8.82;81.60;100264.78;4171790;28;20438;-61
2022/12/31 00:24:19;;;;;;;960.50;892.57;;;;;;;8.84;81.38;100278.94;4168914;28;24440;-63
2022/12/31 00:26:24;;;;;;;0.60;0.60;;;;;;;8.99;81.08;100277.13;4168261;28;20220;-63
2022/12/31 00:28:26;;;;;;;456.90;408.87;;;;;;;9.05;80.25;100272.91;4169708;28;20259;-64
2022/12/31 00:30:28;;;;;;;460.57;383.23;;;;;;;9.08;79.88;100282.50;4169396;28;20314;-63
2022/12/31 00:32:31;;;;;;;447.60;389.93;;;;;;;9.08;80.46;100279.81;4168887;28;20299;-63
2022/12/31 00:34:33;;;;;;;89.63;53.57;;;;;;;9.10;80.70;100275.91;4169650;28;20279;-63
2022/12/31 00:36:36;;;;;;;330.43;304.50;;;;;;;9.10;80.63;100283.16;4169437;28;20333;-63
2022/12/31 00:38:42;;;;;;;421.50;243.13;;;;;;;9.10;80.66;100283.97;4169667;28;20289;-63
2022/12/31 00:40:45;;;;;;;433.20;308.53;;;;;;;9.12;80.44;100289.19;4169036;28;20769;-63
2022/12/31 00:42:47;;;;;;;424.73;263.33;;;;;;;9.10;79.87;100277.75;4170053;28;20314;-63
2022/12/31 00:44:50;;;;;;;417.80;239.83;;;;;;;9.12;80.32;100283.81;4169494;28;20245;-63
2022/12/31 00:46:52;;;;;;;443.70;346.43;;;;;;;9.10;79.96;100288.53;4170659;28;20300;-63
2022/12/31 00:48:55;;;;;;;444.70;359.77;;;;;;;9.08;80.20;100285.19;4169314;28;20294;-62
2022/12/31 00:50:57;;;;;;;419.17;241.37;;;;;;;9.08;80.10;100280.63;4169087;28;20326;-63
2022/12/31 00:53:00;;;;;;;464.37;319.57;;;;;;;9.08;80.60;100291.41;4168752;28;20349;-63
2022/12/31 00:55:05;;;;;;;441.80;287.47;;;;;;;9.08;80.36;100294.09;4169415;28;20764;-63
2022/12/31 00:57:07;;;;;;;383.13;174.57;;;;;;;9.06;80.05;100287.22;4168515;28;20315;-63
2022/12/31 00:59:09;;;;;;;393.87;185.50;;;;;;;9.04;80.18;100294.63;4169760;28;20289;-63
2022/12/31 01:01:13;;;;;;;391.63;177.00;;;;;;;9.05;80.25;100291.75;4167998;28;20318;-63
2022/12/31 01:03:15;;;;;;;369.70;220.90;;;;;;;9.03;80.12;100293.81;4168870;28;20287;-63
2022/12/31 01:05:17;;;;;;;437.90;279.40;;;;;;;9.04;80.58;100298.16;4168498;28;20251;-63
2022/12/31 01:07:19;;;;;;;415.93;229.23;;;;;;;9.03;80.05;100304.59;4168791;28;20283;-63
2022/12/31 01:09:22;;;;;;;419.93;253.40;;;;;;;9.03;80.30;100312.66;4168733;28;20639;-63
2022/12/31 01:11:28;;;;;;;425.47;265.63;;;;;;;9.02;80.00;100314.50;4168388;28;20318;-63
2022/12/31 01:13:30;;;;;;;417.00;247.93;;;;;;;9.02;79.75;100317.19;4169370;28;20279;-63
2022/12/31 01:15:34;;;;;;;413.07;233.63;;;;;;;9.03;80.08;100331.53;4167430;28;20307;-63
2022/12/31 01:17:36;;;;;;;423.80;276.80;;;;;;;9.01;79.98;100326.31;4170237;28;20291;-63
2022/12/31 01:19:38;;;;;;;423.23;313.47;;;;;;;9.01;80.60;100323.63;4169917;28;20279;-63
2022/12/31 01:21:41;;;;;;;420.77;308.63;;;;;;;9.02;80.33;100329.84;4175763;28;22231;-62
2022/12/31 01:23:44;;;;;;;397.10;191.60;;;;;;;9.01;80.03;100318.22;4169986;28;20286;-62
2022/12/31 01:25:46;;;;;;;405.20;202.87;;;;;;;9.01;80.60;100322.75;4167346;28;20772;-62
2022/12/31 01:27:50;;;;;;;402.30;191.93;;;;;;;9.01;80.49;100320.06;4169422;28;20330;-62
2022/12/31 01:29:53;;;;;;;469.50;416.87;;;;;;;9.01;80.68;100326.31;4170047;28;20627;-62
2022/12/31 01:31:55;;;;;;;548.17;493.60;;;;;;;9.02;80.88;100327.97;4168824;28;20301;-63
2022/12/31 01:33:58;;;;;;;418.37;228.23;;;;;;;9.04;79.92;100329.66;4169159;28;20303;-62
2022/12/31 01:36:04;;;;;;;436.70;280.30;;;;;;;9.03;79.95;100336.91;4168054;28;20299;-62
2022/12/31 01:38:06;;;;;;;355.57;136.53;;;;;;;9.03;79.62;100328.81;4172072;28;20797;-63
2022/12/31 01:40:09;;;;;;;344.30;131.27;;;;;;;9.06;79.57;100333.00;4171289;28;20305;-63
2022/12/31 01:42:12;;;;;;;371.23;148.73;;;;;;;9.05;79.68;100331.34;4172165;28;21287;-63
2022/12/31 01:45:00;;;;;;;447.73;317.40;;;;;;;9.04;79.91;100338.56;4172688;28;20677;-62
2022/12/31 01:47:05;;;;;;;342.67;121.57;;;;;;;9.05;79.82;100336.72;4138003;28;20229;-62
2022/12/31 01:49:12;;;;;;;406.07;212.90;;;;;;;9.04;79.82;100343.13;4172996;28;20720;-63
2022/12/31 01:51:14;;;;;;;440.97;278.53;;;;;;;9.05;80.06;100345.63;4171902;28;20322;-63
2022/12/31 01:53:17;;;;;;;352.63;119.67;;;;;;;9.07;79.81;100354.38;4172828;28;20773;-63
2022/12/31 01:55:21;;;;;;;403.10;195.17;;;;;;;9.09;80.60;100349.66;4171371;28;20314;-63
2022/12/31 01:57:24;;;;;;;361.47;131.70;;;;;;;9.10;80.68;100345.13;4171391;28;20357;-62
2022/12/31 01:59:27;;;;;;;384.20;160.90;;;;;;;9.10;80.21;100343.25;4172882;28;20290;-63
2022/12/31 02:01:31;;;;;;;402.17;213.67;;;;;;;9.11;80.10;100346.81;4171455;28;20315;-63
2022/12/31 02:03:35;;;;;;;393.20;179.40;;;;;;;9.14;80.41;100341.06;4171776;28;20287;-63
2022/12/31 02:05:42;;;;;;;403.00;193.20;;;;;;;9.14;80.02;100347.28;4171409;28;20747;-62
2022/12/31 02:07:45;;;;;;;399.10;193.53;;;;;;;9.17;80.02;100343.41;4171732;28;20237;-63
2022/12/31 02:09:47;;;;;;;401.90;199.23;;;;;;;9.17;80.31;100346.91;4171867;28;20303;-63
2022/12/31 02:11:49;;;;;;;397.60;182.90;;;;;;;9.18;79.89;100356.69;4171542;28;20313;-63
2022/12/31 02:13:53;;;;;;;394.40;175.73;;;;;;;9.19;79.79;100347.56;4179130;28;20223;-63
2022/12/31 02:16:02;;;;;;;393.87;187.13;;;;;;;9.20;79.83;100353.81;4171043;28;20311;-62
2022/12/31 02:18:09;;;;;;;452.00;357.40;;;;;;;9.22;79.49;100359.03;4171828;28;20314;-62
2022/12/31 02:20:46;;;;;;;426.03;378.73;;;;;;;9.25;80.56;100367.59;4171673;28;20305;-63
2022/12/31 02:23:10;;;;;;;378.80;349.90;;;;;;;9.26;79.21;100371.94;4171798;28;20305;-62
2022/12/31 02:25:45;;;;;;;469.53;427.40;;;;;;;9.26;78.41;100365.72;4171145;28;20318;-63
2022/12/31 02:27:53;;;;;;;443.40;284.00;;;;;;;9.29;79.61;100366.19;4172116;28;20214;-63
2022/12/31 02:30:09;;;;;;;418.07;224.07;;;;;;;9.29;79.35;100363.50;4169512;28;20262;-63
2022/12/31 02:32:15;;;;;;;447.87;295.57;;;;;;;9.31;78.86;100366.88;4172342;28;20377;-63
2022/12/31 02:34:19;;;;;;;428.90;255.97;;;;;;;9.33;79.79;100369.41;4172015;28;20278;-63
2022/12/31 02:36:24;;;;;;;419.77;239.10;;;;;;;9.38;79.67;100361.63;4170811;28;20339;-63
2022/12/31 02:38:29;;;;;;;404.30;198.10;;;;;;;9.37;79.62;100352.69;4171932;28;20283;-63
2022/12/31 02:40:33;;;;;;;412.73;218.53;;;;;;;9.38;79.57;100345.44;4170768;28;20314;-63
2022/12/31 02:42:36;;;;;;;415.63;216.60;;;;;;;9.40;79.71;100343.41;4170640;28;20306;-63
2022/12/31 02:44:40;;;;;;;413.23;220.23;;;;;;;9.41;79.79;100341.56;4171124;28;20278;-63
2022/12/31 02:46:48;;;;;;;392.47;189.97;;;;;;;9.43;79.34;100345.72;4170638;28;20299;-63
2022/12/31 02:48:55;;;;;;;435.17;191.20;;;;;;;9.42;79.24;100345.91;4170667;28;20195;-62
2022/12/31 02:51:04;;;;;;;406.00;198.23;;;;;;;9.43;78.73;100336.81;4171315;28;20364;-63
2022/12/31 02:53:20;;;;;;;393.67;177.23;;;;;;;9.46;79.33;100336.47;4171004;28;20289;-63
2022/12/31 02:55:30;;;;;;;381.70;163.20;;;;;;;9.47;79.44;100338.16;4171143;28;20655;-63
2022/12/31 02:57:38;;;;;;;360.17;138.07;;;;;;;9.49;80.00;100350.41;4170537;28;20314;-63
2022/12/31 03:02:13;;;;;;;332.13;112.87;;;;;;;9.47;79.87;100338.16;4171420;28;20741;-63
2022/12/31 03:04:32;;;;;;;329.07;115.37;;;;;;;9.48;80.26;100354.16;4171403;28;20701;-63
2022/12/31 03:06:34;;;;;;;319.50;111.57;;;;;;;9.48;80.32;100353.28;4170755;28;20728;-63
2022/12/31 03:09:11;;;;;;;7.67;7.13;;;;;;;9.47;79.79;100346.25;4171170;28;20724;-63
2022/12/31 03:12:44;;;;;;;6.43;6.03;;;;;;;9.47;80.02;100352.47;4171052;28;20630;-63
2022/12/31 03:13:20;;;;;;;9.18;8.55;;;;;;;9.46;80.50;100350.78;4171122;28;21051;-63
2022/12/31 03:15:25;;;;;;;8.63;8.00;;;;;;;9.47;80.94;100346.25;4170757;28;20411;-63
2022/12/31 03:17:29;;;;;;;7.40;6.97;;;;;;;9.47;80.44;100346.25;4169982;28;20302;-62
2022/12/31 03:26:30;;;;;;;8.60;8.00;;;;;;;9.48;79.74;100343.38;4170405;28;20242;-63
2022/12/31 03:28:32;;;;;;;7.67;7.17;;;;;;;9.49;79.98;100353.09;4170992;28;21042;-63
2022/12/31 03:30:35;;;;;;;7.40;6.95;;;;;;;9.53;81.26;100340.97;4170738;28;20764;-63
2022/12/31 03:32:39;;;;;;;6.60;6.18;;;;;;;9.59;82.69;100342.06;4171254;28;20992;-63
2022/12/31 03:34:41;;;;;;;7.75;7.25;;;;;;;9.58;81.00;100351.19;4170388;28;20277;-62
2022/12/31 03:36:43;;;;;;;7.07;6.68;;;;;;;9.60;80.74;100334.84;4170763;28;20644;-63
2022/12/31 03:38:46;;;;;;;7.75;7.25;;;;;;;9.64;80.98;100339.69;4171335;28;20307;-63
2022/12/31 03:40:50;;;;;;;7.43;6.95;;;;;;;9.67;81.53;100336.63;4170245;28;20318;-63
2022/12/31 03:42:52;;;;;;;7.80;7.30;;;;;;;9.66;81.11;100326.88;4170747;28;20912;-63
2022/12/31 03:44:54;;;;;;;9.13;8.52;;;;;;;9.68;81.12;100345.56;4170340;28;20278;-62
2022/12/31 03:46:57;;;;;;;8.20;7.70;;;;;;;9.67;81.25;100333.94;4170902;28;20291;-63
2022/12/31 03:49:00;;;;;;;7.72;7.22;;;;;;;9.68;80.86;100326.69;4170296;28;20290;-63
2022/12/31 03:51:03;;;;;;;9.03;8.47;;;;;;;9.73;81.92;100330.53;4169661;28;20789;-62
2022/12/31 03:53:05;;;;;;;8.20;7.70;;;;;;;9.73;81.09;100324.28;4170625;28;21051;-62
2022/12/31 03:55:09;;;;;;;9.20;8.60;;;;;;;9.70;80.57;100312.00;4170757;28;20767;-63
2022/12/31 03:57:11;;;;;;;8.95;8.35;;;;;;;9.73;81.74;100322.44;4170085;28;21102;-63
2022/12/31 03:59:13;;;;;;;8.88;8.30;;;;;;;9.72;81.16;100315.34;4170746;28;20740;-62
2022/12/31 04:01:16;;;;;;;8.02;7.53;;;;;;;9.74;81.44;100310.59;4169798;28;20318;-62
2022/12/31 04:03:18;;;;;;;7.03;6.63;;;;;;;9.77;81.51;100306.72;4171869;28;20290;-62
2022/12/31 04:05:22;;;;;;;8.98;8.35;;;;;;;9.81;81.30;100304.47;4170133;28;20313;-62
2022/12/31 04:07:25;;;;;;;8.10;7.60;;;;;;;9.80;80.38;100294.75;4170362;28;20287;-62
2022/12/31 04:09:27;;;;;;;7.47;7.03;;;;;;;9.80;80.30;100294.75;4171317;28;20729;-63
2022/12/31 04:11:29;;;;;;;8.23;7.72;;;;;;;9.83;80.79;100305.16;4169709;28;20321;-63
2022/12/31 04:13:32;;;;;;;8.52;8.00;;;;;;;9.86;81.32;100302.09;4170135;28;20220;-63
2022/12/31 04:15:34;;;;;;;7.50;7.05;;;;;;;9.87;80.45;100310.00;4169070;28;20331;-62
2022/12/31 04:17:36;;;;;;;7.85;7.35;;;;;;;9.92;81.58;100304.91;4170071;28;20313;-62
2022/12/31 04:19:39;;;;;;;8.07;7.57;;;;;;;9.96;81.12;100309.94;4169012;28;20278;-63
2022/12/31 04:21:42;;;;;;;7.43;6.93;;;;;;;9.96;81.07;100304.53;4169486;28;20319;-63
2022/12/31 04:23:44;;;;;;;7.50;7.10;;;;;;;9.96;80.36;100299.13;4170380;28;20637;-62
2022/12/31 04:25:47;;;;;;;7.78;7.20;;;;;;;9.97;80.71;100316.97;4169183;28;20314;-63
2022/12/31 04:27:49;;;;;;;7.63;7.13;;;;;;;9.96;80.94;100313.44;4169910;28;20284;-62
2022/12/31 04:29:51;;;;;;;8.43;7.83;;;;;;;10.03;81.56;100306.31;4167894;28;20738;-63
2022/12/31 04:31:54;;;;;;;8.00;7.47;;;;;;;10.07;82.00;100306.78;4169095;28;20749;-63
2022/12/31 04:33:56;;;;;;;7.82;7.32;;;;;;;10.12;81.82;100317.00;4169948;28;20192;-63
2022/12/31 04:36:00;;;;;;;7.40;6.90;;;;;;;10.08;80.76;100308.47;4169582;28;20317;-63
2022/12/31 04:38:04;;;;;;;7.40;6.97;;;;;;;10.08;80.51;100324.66;4170242;28;20756;-63
2022/12/31 04:40:08;;;;;;;8.40;7.82;;;;;;;10.07;80.71;100320.25;4169789;28;20322;-63
2022/12/31 04:42:10;;;;;;;8.40;7.80;;;;;;;10.16;81.76;100321.03;4169630;28;20314;-63
2022/12/31 04:44:13;;;;;;;7.90;7.40;;;;;;;10.16;81.07;100297.56;4170322;28;20291;-63
2022/12/31 04:46:16;;;;;;;8.27;7.67;;;;;;;10.17;81.04;100288.47;4168400;28;20318;-63
2022/12/31 04:48:18;;;;;;;8.73;8.05;;;;;;;10.16;80.79;100283.25;4169928;28;20724;-63
2022/12/31 04:50:20;;;;;;;8.57;7.97;;;;;;;10.17;81.00;100285.75;4168821;28;20333;-63
2022/12/31 04:52:23;;;;;;;10.07;9.30;;;;;;;10.21;81.36;100281.66;4169590;28;20660;-63
2022/12/31 04:54:26;;;;;;;8.20;7.60;;;;;;;10.25;82.34;100292.91;4170106;28;20195;-63
2022/12/31 04:56:29;;;;;;;8.18;7.57;;;;;;;10.31;83.19;100278.66;4169522;28;20345;-63
2022/12/31 04:58:31;;;;;;;8.70;8.10;;;;;;;10.34;82.35;100269.41;4169371;28;20330;-63
2022/12/31 05:00:33;;;;;;;8.73;8.13;;;;;;;10.38;82.81;100257.22;4168058;28;20336;-63
2022/12/31 05:02:35;;;;;;;7.45;7.00;;;;;;;10.38;82.09;100254.50;4169747;28;20298;-63
2022/12/31 05:04:38;;;;;;;8.73;8.05;;;;;;;10.36;81.61;100243.03;4168595;28;20290;-63
2022/12/31 05:06:40;;;;;;;7.00;6.60;;;;;;;10.35;81.23;100258.41;4168536;28;20917;-63
2022/12/31 05:08:43;;;;;;;7.30;6.80;;;;;;;10.38;81.34;100257.22;4170320;28;20283;-63
2022/12/31 05:10:49;;;;;;;7.82;7.32;;;;;;;10.41;82.32;100264.94;4184219;28;20321;-63
2022/12/31 05:12:51;;;;;;;6.15;5.82;;;;;;;10.44;82.51;100259.16;4171467;28;20318;-63
2022/12/31 05:14:53;;;;;;;9.50;8.82;;;;;;;10.48;82.64;100263.13;4171946;28;20223;-63
2022/12/31 05:16:57;;;;;;;7.93;7.43;;;;;;;10.52;82.41;100269.03;4172526;28;20709;-63
2022/12/31 05:18:59;;;;;;;8.13;7.63;;;;;;;10.52;81.90;100269.84;4172952;28;20745;-62
2022/12/31 05:21:01;;;;;;;7.33;6.83;;;;;;;10.55;82.04;100266.78;4179431;28;20307;-63
2022/12/31 05:23:04;;;;;;;8.70;8.13;;;;;;;10.60;82.81;100263.50;4172792;28;20749;-63
2022/12/31 05:25:07;;;;;;;11.95;11.05;;;;;;;10.63;82.61;100287.44;4172472;28;20304;-62
2022/12/31 05:27:10;;;;;;;8.40;7.80;;;;;;;10.73;83.61;100262.81;4172473;28;20298;-62
2022/12/31 05:29:12;;;;;;;9.27;8.67;;;;;;;10.80;83.90;100275.38;4173428;28;20720;-63
2022/12/31 05:31:15;;;;;;;10.30;9.50;;;;;;;10.83;83.90;100274.19;4171887;28;20735;-63
2022/12/31 05:33:17;;;;;;;8.77;8.07;;;;;;;10.88;84.07;100287.09;4173097;28;20286;-63
2022/12/31 05:35:19;;;;;;;8.50;7.88;;;;;;;10.90;83.92;100287.75;4171937;28;20230;-63
2022/12/31 05:37:22;;;;;;;7.40;6.90;;;;;;;10.90;84.80;100266.97;4172651;28;20282;-63
2022/12/31 05:39:24;;;;;;;8.23;7.63;;;;;;;10.85;85.34;100263.19;4172193;28;20655;-63
2022/12/31 05:41:26;;;;;;;7.75;7.18;;;;;;;10.82;85.19;100254.41;4171860;28;21702;-63
2022/12/31 05:43:30;;;;;;;7.93;7.43;;;;;;;10.79;85.21;100246.69;4172483;28;20277;-63
2022/12/31 05:45:33;;;;;;;7.23;6.77;;;;;;;10.76;84.86;100248.94;4171626;28;20783;-63
2022/12/31 05:47:35;;;;;;;7.88;7.38;;;;;;;10.76;85.85;100241.66;4172718;28;20730;-63
2022/12/31 05:49:37;;;;;;;7.77;7.27;;;;;;;10.71;84.50;100241.41;4173467;28;20283;-63
2022/12/31 05:51:39;;;;;;;7.38;6.88;;;;;;;10.74;85.37;100242.91;4172297;28;20748;-63
2022/12/31 05:53:42;;;;;;;8.23;7.68;;;;;;;10.75;85.66;100231.06;4172760;28;20322;-62
2022/12/31 05:55:45;;;;;;;7.18;6.70;;;;;;;10.75;85.49;100245.41;4172264;28;20246;-63
2022/12/31 05:57:48;;;;;;;7.57;7.07;;;;;;;10.77;86.35;100223.63;4172298;28;20317;-63
2022/12/31 05:59:52;;;;;;;8.43;7.82;;;;;;;10.77;86.37;100229.84;4172153;28;20311;-63
2022/12/31 06:01:54;;;;;;;8.65;8.00;;;;;;;10.77;87.50;100226.31;4172044;28;20785;-63
2022/12/31 06:03:56;;;;;;;7.20;6.70;;;;;;;10.77;86.78;100239.81;4173043;28;20298;-63
2022/12/31 06:06:01;;;;;;;7.13;6.63;;;;;;;10.77;86.63;100218.22;4171824;28;20937;-63
2022/12/31 06:08:03;;;;;;;6.97;6.57;;;;;;;10.78;87.38;100218.03;4172588;28;20720;-62
2022/12/31 06:10:06;;;;;;;9.10;8.50;;;;;;;10.74;86.56;100213.19;4171570;28;20314;-63
2022/12/31 06:12:09;;;;;;;9.02;8.32;;;;;;;10.75;85.63;100215.69;4170646;28;20307;-63
2022/12/31 06:14:12;;;;;;;6.90;6.43;;;;;;;10.71;84.86;100210.88;4171561;28;20290;-63
2022/12/31 06:16:15;;;;;;;7.30;6.80;;;;;;;10.71;85.50;100208.16;4171330;28;20641;-63
2022/12/31 06:18:18;;;;;;;8.80;8.17;;;;;;;10.71;85.03;100203.59;4172156;28;20289;-63
2022/12/31 06:20:20;;;;;;;8.70;8.07;;;;;;;10.70;84.60;100210.00;4172990;28;20736;-63
2022/12/31 06:22:22;;;;;;;8.50;7.90;;;;;;;10.73;85.14;100198.00;4172874;28;20732;-63
2022/12/31 06:24:24;;;;;;;7.93;7.43;;;;;;;10.73;85.34;100203.41;4170492;28;20723;-63
2022/12/31 06:26:27;;;;;;;7.80;7.30;;;;;;;10.75;85.54;100198.63;4170871;28;20726;-63
2022/12/31 06:28:29;;;;;;;7.63;7.13;;;;;;;10.79;85.64;100199.94;4171170;28;20938;-64
2022/12/31 06:30:32;;;;;;;7.13;6.73;;;;;;;10.78;85.42;100190.16;4171024;28;20359;-64
2022/12/31 06:32:35;;;;;;;9.80;9.10;;;;;;;10.80;86.42;100186.25;4170864;28;21103;-63
2022/12/31 06:34:38;;;;;;;7.22;6.78;;;;;;;10.85;86.56;100201.06;4171767;28;20716;-62
2022/12/31 06:36:41;;;;;;;7.20;6.80;;;;;;;10.88;86.06;100206.03;4171508;28;20225;-63
2022/12/31 06:38:44;;;;;;;7.90;7.30;;;;;;;10.87;85.87;100185.47;4171368;28;20732;-63
2022/12/31 06:40:46;;;;;;;6.28;5.88;;;;;;;10.93;86.60;100207.16;4171081;28;20310;-63
2022/12/31 06:42:48;;;;;;;7.07;6.57;;;;;;;10.95;85.81;100196.97;4171905;28;20309;-63
2022/12/31 06:44:50;;;;;;;8.27;7.67;;;;;;;11.02;86.41;100204.31;4170382;28;20721;-62
2022/12/31 06:46:53;;;;;;;7.80;7.30;;;;;;;11.06;86.30;100214.53;4172255;28;20708;-62
2022/12/31 06:48:56;;;;;;;7.93;7.43;;;;;;;11.17;87.03;100205.94;4171627;28;20286;-62
2022/12/31 06:51:04;;;;;;;7.07;6.67;;;;;;;11.16;86.55;100201.56;4171546;28;20732;-63
2022/12/31 06:53:06;;;;;;;7.63;7.13;;;;;;;11.20;86.43;100198.47;4172465;28;20712;-63
2022/12/31 06:55:10;;;;;;;9.07;8.43;;;;;;;11.26;86.63;100206.63;4171545;28;20488;-63
2022/12/31 06:57:13;;;;;;;9.32;8.63;;;;;;;11.33;86.46;100207.53;4171105;28;20665;-63
2022/12/31 06:59:25;;;;;;;7.60;7.10;;;;;;;11.40;86.30;100212.97;4171636;28;20314;-63
2022/12/31 07:01:52;;;;;;;7.67;7.17;;;;;;;11.39;86.34;100195.06;4171442;28;20769;-64
2022/12/31 07:04:00;;;;;;;8.17;7.60;;;;;;;11.45;85.67;100199.69;4182342;28;21290;-63
2022/12/31 07:06:08;;;;;;;8.15;7.63;;;;;;;11.48;86.38;100204.72;4170778;28;20733;-63
2022/12/31 07:08:20;;;;;;;7.77;7.27;;;;;;;11.51;85.38;100206.22;4171626;28;20292;-63
2022/12/31 07:10:30;;;;;;;8.83;8.20;;;;;;;11.56;85.77;100189.41;4176985;28;20743;-64
2022/12/31 07:12:45;;;;;;;7.95;7.45;;;;;;;11.54;85.23;100178.78;4170213;28;20757;-63
2022/12/31 07:14:52;;;;;;;9.40;8.77;;;;;;;11.56;85.45;100167.75;4170247;28;20294;-64
2022/12/31 07:17:03;;;;;;;7.82;7.32;;;;;;;11.57;85.23;100197.31;4170593;28;20309;-63
2022/12/31 07:19:13;;;;;;;7.55;7.10;;;;;;;11.63;85.76;100183.00;4170603;28;20198;-63
2022/12/31 07:21:18;;;;;;;8.70;8.10;;;;;;;11.61;84.62;100201.28;4170502;28;20326;-64
2022/12/31 07:23:21;;;;;;;9.20;8.50;;;;;;;11.68;85.08;100190.53;4170952;28;20290;-64
2022/12/31 07:25:24;;;;;;;8.07;7.57;;;;;;;11.66;84.47;100193.44;4169955;28;20737;-63
2022/12/31 07:27:49;;;;;;;8.65;8.05;;;;;;;11.72;85.16;100171.00;4170612;28;20716;-63
2022/12/31 07:30:01;;;;;;;9.80;9.10;;;;;;;11.70;85.27;100185.75;4170267;28;20342;-63
2022/12/31 07:32:10;;;;;;;7.50;7.00;;;;;;;11.72;84.64;100187.22;4170730;28;21150;-63
2022/12/31 07:34:20;;;;;;;7.93;7.33;;;;;;;11.74;84.83;100181.63;4171227;28;20724;-63
2022/12/31 07:36:37;;;;;;;8.75;8.13;;;;;;;11.81;84.96;100209.53;4169821;28;20724;-63
2022/12/31 07:38:45;;;;;;;7.95;7.38;;;;;;;11.87;85.19;100203.34;4169459;28;20298;-63
2022/12/31 07:40:55;;;;;;;8.00;7.40;;;;;;;11.86;84.01;100193.53;4170964;28;20238;-63
2022/12/31 07:43:05;;;;;;;8.25;7.72;;;;;;;11.86;83.98;100171.88;4169692;28;20294;-64
2022/12/31 07:45:14;;;;;;;10.57;9.77;;;;;;;11.90;84.25;100170.47;4169497;28;20301;-63
2022/12/31 07:47:21;;;;;;;8.40;7.83;;;;;;;11.94;84.39;100181.75;4170578;28;21284;-63
2022/12/31 07:49:26;;;;;;;8.10;7.60;;;;;;;11.97;83.76;100192.16;4170271;28;21270;-64
2022/12/31 07:51:28;;;;;;;8.03;7.43;;;;;;;12.01;83.93;100192.63;4168454;28;20774;-64
2022/12/31 07:53:31;;;;;;;9.07;8.47;;;;;;;12.00;83.33;100177.41;4170151;28;20704;-64
2022/12/31 07:55:34;;;;;;;8.93;8.33;;;;;;;12.07;83.89;100206.19;4168371;28;20740;-64
2022/12/31 07:57:41;;;;;;;7.50;7.03;;;;;;;12.05;83.61;100200.16;4170066;28;20743;-64
2022/12/31 07:59:58;;;;;;;7.97;7.47;;;;;;;12.03;83.06;100202.19;4169543;28;20765;-62
2022/12/31 08:02:03;;;;;;;8.20;7.67;;;;;;;12.14;84.60;100197.28;4185551;28;20646;-63
2022/12/31 08:04:10;;;;;;;8.43;7.93;;;;;;;12.17;84.18;100208.53;4170851;28;20716;-63
2022/12/31 08:06:18;;;;;;;8.87;8.27;;;;;;;12.21;83.78;100214.34;4169644;28;20729;-63
2022/12/31 08:08:32;;;;;;;8.70;8.13;;;;;;;12.22;83.82;100219.56;4169984;28;21223;-63
2022/12/31 08:10:38;;;;;;;8.75;8.20;;;;;;;12.23;83.22;100223.13;4185843;28;21114;-63
2022/12/31 08:12:41;;;;;;;8.57;7.97;;;;;;;12.19;83.01;100219.97;4169397;28;20788;-64
2022/12/31 08:14:46;;;;;;;10.63;9.90;;;;;;;12.20;82.77;100228.97;4170693;28;20722;-63
2022/12/31 08:16:48;;;;;;;8.17;7.60;;;;;;;12.25;83.61;100221.88;4170033;28;20728;-64
2022/12/31 08:18:51;;;;;;;8.77;8.17;;;;;;;12.24;82.83;100224.78;4184815;28;20719;-62
2022/12/31 08:21:00;;;;;;;8.10;7.60;;;;;;;12.21;82.18;100217.94;4169302;28;20733;-63
2022/12/31 08:23:18;;;;;;;9.57;8.87;;;;;;;12.21;82.74;100228.75;4169781;28;20223;-62
2022/12/31 08:25:25;;;;;;;8.73;8.17;;;;;;;12.23;82.89;100210.44;4169823;28;20740;-63
2022/12/31 08:27:33;;;;;;;9.73;9.03;;;;;;;12.20;82.32;100228.97;4169802;28;20716;-63
2022/12/31 08:29:41;;;;;;;8.37;7.80;;;;;;;12.22;82.83;100229.59;4170020;28;20707;-63
2022/12/31 08:31:48;;;;;;;7.77;7.27;;;;;;;12.22;83.10;100225.00;4168514;28;20744;-62
2022/12/31 08:33:54;;;;;;;9.87;9.20;;;;;;;12.28;83.49;100211.72;4168810;28;21072;-63
2022/12/31 08:36:08;;;;;;;9.77;9.07;;;;;;;12.33;83.45;100233.59;4168552;28;20739;-63
2022/12/31 08:38:18;;;;;;;9.17;8.50;;;;;;;12.35;82.80;100215.25;4170316;28;20730;-63
2022/12/31 08:40:24;;;;;;;8.63;8.03;;;;;;;12.34;82.73;100222.56;4169155;28;20741;-63
2022/12/31 08:42:32;;;;;;;10.73;9.90;;;;;;;12.36;82.88;100225.06;4169058;28;21013;-62
2022/12/31 08:44:39;;;;;;;8.97;8.27;;;;;;;12.44;82.99;100209.50;4168486;28;21698;-63
2022/12/31 08:46:47;;;;;;;10.53;9.70;;;;;;;12.43;82.37;100225.94;4168163;28;20783;-63
2022/12/31 08:48:49;;;;;;;11.73;10.87;;;;;;;12.44;82.79;100217.63;4172709;28;20711;-63
2022/12/31 08:50:52;;;;;;;11.17;10.27;;;;;;;12.53;83.03;100214.72;4171634;28;21037;-65
2022/12/31 08:52:55;;;;;;;9.93;9.20;;;;;;;12.58;82.53;100218.47;4171567;28;20859;-64
2022/12/31 08:55:00;;;;;;;13.00;12.00;;;;;;;12.54;81.58;100229.91;4169736;28;20628;-64
2022/12/31 08:57:07;;;;;;;10.33;9.53;;;;;;;12.56;82.12;100215.16;4169178;28;20748;-64
2022/12/31 08:59:26;;;;;;;10.93;10.13;;;;;;;12.53;81.94;100217.44;4169862;28;21228;-62
2022/12/31 09:01:46;;;;;;;10.73;9.93;;;;;;;12.59;81.93;100241.00;4170021;28;20745;-62
2022/12/31 09:04:03;;;;;;;11.47;10.60;;;;;;;12.61;81.96;100223.50;4171081;28;20760;-63
2022/12/31 09:06:12;;;;;;;11.20;10.37;;;;;;;12.64;81.91;100221.44;4169089;28;22271;-63
2022/12/31 09:08:19;;;;;;;9.53;8.83;;;;;;;12.67;82.03;100248.13;4169571;28;20732;-64
2022/12/31 09:10:27;;;;;;;11.17;10.37;;;;;;;12.70;81.57;100226.03;4170195;28;20739;-64
2022/12/31 09:12:34;;;;;;;10.67;9.90;;;;;;;12.77;82.03;100232.31;4168637;28;20745;-64
2022/12/31 09:14:47;;;;;;;9.80;9.10;;;;;;;12.78;81.66;100233.97;4169238;28;21399;-64
2022/12/31 09:16:55;;;;;;;8.50;7.97;;;;;;;12.78;81.81;100242.94;4173300;28;20729;-64
2022/12/31 09:18:57;;;;;;;9.60;9.00;;;;;;;12.76;80.90;100249.63;4171157;28;20703;-63
2022/12/31 09:21:00;;;;;;;10.23;9.53;;;;;;;12.77;81.43;100233.16;4168920;28;20744;-65
2022/12/31 09:23:03;;;;;;;10.47;9.70;;;;;;;12.75;81.13;100237.09;4171465;28;20749;-65
2022/12/31 09:25:06;;;;;;;12.37;11.50;;;;;;;12.75;81.15;100232.50;4172016;28;20734;-65
2022/12/31 09:27:18;;;;;;;12.97;12.00;;;;;;;12.77;81.81;100222.31;4172813;28;20617;-64
2022/12/31 09:29:30;;;;;;;10.60;9.83;;;;;;;12.75;81.40;100228.97;4174295;28;20704;-62
2022/12/31 09:31:37;;;;;;;10.67;9.97;;;;;;;12.77;81.56;100229.59;4171121;28;20760;-63
2022/12/31 09:33:43;;;;;;;12.37;11.47;;;;;;;12.85;81.85;100229.41;4169900;28;20709;-62
2022/12/31 09:35:51;;;;;;;10.97;10.10;;;;;;;12.87;81.53;100216.50;4169153;28;20975;-63
2022/12/31 09:37:56;;;;;;;10.43;9.63;;;;;;;12.89;81.62;100227.13;4171616;28;20707;-64
2022/12/31 09:40:02;;;;;;;10.07;9.30;;;;;;;12.94;81.05;100240.91;4172176;28;20754;-63
2022/12/31 09:42:40;;;;;;;9.53;8.83;;;;;;;12.99;80.86;100246.53;4170000;28;20772;-63
2022/12/31 09:45:07;;;;;;;9.70;9.03;;;;;;;13.02;80.96;100227.16;4168886;28;20760;-64
2022/12/31 09:47:40;;;;;;;10.50;9.77;;;;;;;13.03;80.61;100231.53;4171502;28;21231;-62
2022/12/31 09:50:14;;;;;;;10.03;9.33;;;;;;;13.04;80.26;100237.78;4170136;28;21235;-63
2022/12/31 09:52:24;;;;;;;11.27;10.47;;;;;;;13.08;80.61;100242.59;4170945;28;20735;-63